Time;durP1;ratioP1;P1;durP2;ratioP2;P2;SDS_P1;SDS_P2;PMS_P1;PMS_P2;Temp;Humidity;BMP_temperature;BMP_pressure;BME280_temperature;BME280_humidity;BME280_pressure;Samples;Min_cycle;Max_cycle;Signal;HPM_P1;HPM_P2
2023/04/29 00:02:04;;;;;;;;;;;;;;;15.27;94.16;98282.84;5023677;28;20389;-64
2023/04/29 00:04:30;;;;;;;;;;;;;;;15.19;94.42;98275.09;5020640;28;19944;-64
2023/04/29 00:06:55;;;;;;;;;;;;;;;15.08;95.18;98276.38;5035407;28;20458;-65
2023/04/29 00:09:20;;;;;;;;;;;;;;;15.20;95.29;98258.38;5007548;28;20630;-64
2023/04/29 00:11:46;;;;;;;;;;;;;;;15.09;95.36;98216.97;5021313;28;19925;-64
2023/04/29 00:14:11;;;;;;;;;;;;;;;15.35;95.66;98259.19;5008721;28;20417;-64
2023/04/29 00:16:37;;;;;;;;;;;;;;;15.33;95.70;98271.66;5024014;28;19929;-64
2023/04/29 00:19:02;;;;;;;;;;;;;;;15.16;96.17;98272.84;5044022;28;19925;-64
2023/04/29 00:21:28;;;;;;;;;;;;;;;14.84;99.11;98276.63;5026203;28;19935;-64
2023/04/29 00:23:55;;;;;;;;;;;;;;;14.81;99.35;98275.19;5038594;28;19917;-63
2023/04/29 00:26:21;;;;;;;;;;;;;;;14.79;100.00;98267.53;5008356;28;19932;-64
2023/04/29 00:28:46;;;;;;;;;;;;;;;14.79;100.00;98264.09;5043828;28;20359;-64
2023/04/29 00:31:14;;;;;;;;;;;;;;;14.83;100.00;98265.38;5022689;28;19917;-66
2023/04/29 00:33:39;;;;;;;;;;;;;;;14.95;100.00;98253.47;5041993;28;19932;-64
2023/04/29 00:36:05;;;;;;;;;;;;;;;14.89;100.00;98248.13;5026295;28;19921;-64
2023/04/29 00:38:33;;;;;;;;;;;;;;;14.93;100.00;98247.59;5044040;28;20377;-65
2023/04/29 00:40:58;;;;;;;;;;;;;;;14.90;100.00;98234.84;5023307;28;20387;-64
2023/04/29 00:43:26;;;;;;;;;;;;;;;14.91;100.00;98226.03;5043582;28;19956;-64
2023/04/29 00:45:51;;;;;;;;;;;;;;;14.86;100.00;98227.53;5024367;28;20612;-64
2023/04/29 00:48:19;;;;;;;;;;;;;;;14.87;100.00;98231.78;5021118;28;19929;-63
2023/04/29 00:50:44;;;;;;;;;;;;;;;14.89;100.00;98228.00;5042246;28;20288;-63
2023/04/29 00:53:11;;;;;;;;;;;;;;;14.80;100.00;98237.75;5042182;28;19979;-63
2023/04/29 00:55:39;;;;;;;;;;;;;;;14.77;100.00;98238.13;5027505;28;19920;-64
2023/04/29 00:58:04;;;;;;;;;;;;;;;14.67;100.00;98228.91;5008916;28;20019;-64
2023/04/29 01:00:30;;;;;;;;;;;;;;;14.75;100.00;98221.78;5041016;28;20046;-64
2023/04/29 01:02:55;;;;;;;;;;;;;;;14.90;100.00;98220.97;5025871;28;19985;-64
2023/04/29 01:05:21;;;;;;;;;;;;;;;14.92;100.00;98217.16;5025165;28;19974;-63
2023/04/29 01:07:53;;;;;;;;;;;;;;;14.88;100.00;98225.56;5026321;28;19928;-64
2023/04/29 01:10:18;;;;;;;;;;;;;;;14.80;100.00;98216.81;5044099;28;19931;-64
2023/04/29 01:12:53;;;;;;;;;;;;;;;14.81;100.00;98215.00;5038213;28;19921;-63
2023/04/29 01:15:22;;;;;;;;;;;;;;;14.86;100.00;98211.84;5008864;28;20328;-63
2023/04/29 01:17:50;;;;;;;;;;;;;;;14.75;100.00;98206.06;5043116;28;19921;-63
2023/04/29 01:20:16;;;;;;;;;;;;;;;14.82;100.00;98197.50;5007534;28;19936;-63
2023/04/29 01:22:41;;;;;;;;;;;;;;;14.87;100.00;98200.38;5026698;28;19921;-63
2023/04/29 01:25:07;;;;;;;;;;;;;;;14.77;100.00;98208.53;5024264;28;19965;-63
2023/04/29 01:27:52;;;;;;;;;;;;;;;14.78;100.00;98199.66;5024582;28;19932;-63
2023/04/29 01:30:30;;;;;;;;;;;;;;;14.68;100.00;98220.88;5021519;28;19928;-62
2023/04/29 01:32:59;;;;;;;;;;;;;;;14.51;100.00;98196.66;5019866;28;20812;-63
2023/04/29 01:35:44;;;;;;;;;;;;;;;14.68;100.00;98230.53;5042327;28;19924;-64
2023/04/29 01:38:13;;;;;;;;;;;;;;;14.79;100.00;98223.03;5010454;28;20390;-63
2023/04/29 01:40:47;;;;;;;;;;;;;;;14.82;100.00;98226.28;5040426;28;19925;-63
2023/04/29 01:43:13;;;;;;;;;;;;;;;14.86;100.00;98211.84;5026551;28;20526;-63
2023/04/29 01:45:42;;;;;;;;;;;;;;;14.83;100.00;98214.84;5024788;28;19978;-63
2023/04/29 01:48:08;;;;;;;;;;;;;;;14.94;100.00;98214.38;5022825;28;19964;-63
2023/04/29 01:50:35;;;;;;;;;;;;;;;15.00;100.00;98229.34;5022679;28;20537;-62
2023/04/29 01:53:01;;;;;;;;;;;;;;;14.78;100.00;98217.97;5040192;28;20003;-63
2023/04/29 01:55:26;;;;;;;;;;;;;;;14.63;100.00;98211.94;5039077;28;19927;-63
2023/04/29 01:57:54;;;;;;;;;;;;;;;14.75;100.00;98213.94;5041624;28;19917;-64
2023/04/29 02:00:22;;;;;;;;;;;;;;;14.82;100.00;98215.81;5022868;28;19928;-63
2023/04/29 02:02:47;;;;;;;;;;;;;;;14.82;100.00;98210.56;5022632;28;20297;-63
2023/04/29 02:05:15;;;;;;;;;;;;;;;14.87;100.00;98210.84;5023944;28;20363;-62
2023/04/29 02:07:41;;;;;;;;;;;;;;;14.93;100.00;98228.44;5020748;28;20013;-64
2023/04/29 02:10:06;;;;;;;;;;;;;;;14.90;100.00;98231.44;5025761;28;19924;-63
2023/04/29 02:12:32;;;;;;;;;;;;;;;14.78;100.00;98229.28;5007218;28;20191;-63
2023/04/29 02:14:57;;;;;;;;;;;;;;;14.94;100.00;98227.44;5024326;28;19921;-63
2023/04/29 02:17:23;;;;;;;;;;;;;;;14.96;100.00;98230.69;5025205;28;20015;-63
2023/04/29 02:19:48;;;;;;;;;;;;;;;15.01;100.00;98227.56;5038564;28;19929;-63
2023/04/29 02:22:14;;;;;;;;;;;;;;;14.83;100.00;98215.63;5037915;28;19939;-63
2023/04/29 02:24:39;;;;;;;;;;;;;;;14.78;100.00;98216.19;5040567;28;20300;-64
2023/04/29 02:27:05;;;;;;;;;;;;;;;14.72;100.00;98219.50;5006209;28;20444;-63
2023/04/29 02:29:32;;;;;;;;;;;;;;;14.79;100.00;98230.09;5006795;28;19959;-63
2023/04/29 02:32:00;;;;;;;;;;;;;;;14.87;100.00;98227.34;5020624;28;20296;-63
2023/04/29 02:34:25;;;;;;;;;;;;;;;14.86;100.00;98222.31;5023613;28;19929;-64
2023/04/29 02:36:50;;;;;;;;;;;;;;;14.87;100.00;98227.34;5020376;28;19931;-63
2023/04/29 02:39:16;;;;;;;;;;;;;;;14.90;100.00;98232.25;5023801;28;19920;-63
2023/04/29 02:41:43;;;;;;;;;;;;;;;14.97;100.00;98220.06;5021601;28;19974;-64
2023/04/29 02:44:08;;;;;;;;;;;;;;;14.92;100.00;98204.06;5025109;28;20757;-63
2023/04/29 02:46:35;;;;;;;;;;;;;;;14.96;100.00;98201.91;5004492;28;19925;-63
2023/04/29 02:49:00;;;;;;;;;;;;;;;14.86;100.00;98214.44;5040220;28;19916;-63
2023/04/29 02:51:26;;;;;;;;;;;;;;;14.67;100.00;98219.25;5024753;28;19927;-63
2023/04/29 02:53:52;;;;;;;;;;;;;;;14.43;100.00;98217.66;5022189;28;19960;-63
2023/04/29 02:56:17;;;;;;;;;;;;;;;14.31;100.00;98219.09;5024154;28;19921;-63
2023/04/29 02:58:42;;;;;;;;;;;;;;;14.37;100.00;98215.78;5022887;28;20422;-63
2023/04/29 03:01:07;;;;;;;;;;;;;;;14.30;100.00;98207.81;5008833;28;19929;-63
2023/04/29 03:03:33;;;;;;;;;;;;;;;14.32;100.00;98200.59;5007450;28;19925;-64
2023/04/29 03:05:58;;;;;;;;;;;;;;;14.22;100.00;98182.56;5035083;28;20015;-64
2023/04/29 03:08:23;;;;;;;;;;;;;;;14.41;100.00;98204.75;5037053;28;19927;-64
2023/04/29 03:10:49;;;;;;;;;;;;;;;14.58;100.00;98204.63;5038422;28;20423;-64
2023/04/29 03:13:14;;;;;;;;;;;;;;;14.55;100.00;98207.59;5039105;28;20401;-64
2023/04/29 03:15:39;;;;;;;;;;;;;;;14.60;100.00;98190.38;5021865;28;19921;-64
2023/04/29 03:18:05;;;;;;;;;;;;;;;14.64;100.00;98183.00;5024997;28;20361;-64
2023/04/29 03:20:31;;;;;;;;;;;;;;;14.60;100.00;98179.09;5023846;28;19974;-63
2023/04/29 03:22:56;;;;;;;;;;;;;;;14.59;100.00;98188.75;5021003;28;20380;-63
2023/04/29 03:25:22;;;;;;;;;;;;;;;14.62;100.00;98184.97;5040002;28;19967;-65
2023/04/29 03:27:48;;;;;;;;;;;;;;;14.62;100.00;98179.75;5023135;28;19959;-63
2023/04/29 03:30:13;;;;;;;;;;;;;;;14.72;100.00;98177.66;5025763;28;19921;-64
2023/04/29 03:32:38;;;;;;;;;;;;;;;14.70;100.00;98184.06;5008418;28;19921;-63
2023/04/29 03:35:04;;;;;;;;;;;;;;;14.55;100.00;98190.09;5024330;28;19917;-63
2023/04/29 03:37:29;;;;;;;;;;;;;;;14.38;100.00;98184.22;5021906;28;19924;-63
2023/04/29 03:39:57;;;;;;;;;;;;;;;14.21;100.00;98187.97;5008501;28;20330;-64
2023/04/29 03:42:22;;;;;;;;;;;;;;;14.18;100.00;98193.53;5024788;28;19931;-63
2023/04/29 03:44:47;;;;;;;;;;;;;;;13.95;100.00;98189.19;5020493;28;19924;-63
2023/04/29 03:47:15;;;;;;;;;;;;;;;13.85;100.00;98175.53;5002689;28;19985;-63
2023/04/29 03:49:40;;;;;;;;;;;;;;;13.73;100.00;98174.34;5026023;28;19928;-63
2023/04/29 03:52:06;;;;;;;;;;;;;;;13.91;100.00;98176.63;5040182;28;20006;-63
2023/04/29 03:54:31;;;;;;;;;;;;;;;13.98;100.00;98180.16;5023161;28;20003;-63
2023/04/29 03:56:57;;;;;;;;;;;;;;;14.01;100.00;98179.81;5026898;28;19920;-63
2023/04/29 03:59:22;;;;;;;;;;;;;;;14.01;100.00;98178.00;5028715;28;19921;-63
2023/04/29 04:01:48;;;;;;;;;;;;;;;14.04;100.00;98176.88;5022989;28;20010;-63
2023/04/29 04:04:14;;;;;;;;;;;;;;;14.10;100.00;98170.91;5026158;28;19929;-63
2023/04/29 04:06:39;;;;;;;;;;;;;;;14.20;100.00;98161.03;5026823;28;19921;-64
2023/04/29 04:09:05;;;;;;;;;;;;;;;14.19;100.00;98159.38;5024790;28;19939;-63
2023/04/29 04:11:30;;;;;;;;;;;;;;;14.22;100.00;98164.25;5028798;28;19980;-63
2023/04/29 04:13:55;;;;;;;;;;;;;;;14.35;100.00;98170.69;5025119;28;20032;-63
2023/04/29 04:16:21;;;;;;;;;;;;;;;14.41;100.00;98180.41;5025500;28;19967;-63
2023/04/29 04:18:46;;;;;;;;;;;;;;;14.44;100.00;98177.44;5014972;28;19968;-63
2023/04/29 04:21:11;;;;;;;;;;;;;;;14.46;100.00;98177.28;5040060;28;20025;-64
2023/04/29 04:23:39;;;;;;;;;;;;;;;14.49;100.00;98166.44;5007425;28;20019;-64
2023/04/29 04:26:05;;;;;;;;;;;;;;;14.52;100.00;98171.31;5023670;28;19964;-64
2023/04/29 04:28:30;;;;;;;;;;;;;;;14.39;100.00;98171.94;5019263;28;19956;-64
2023/04/29 04:30:56;;;;;;;;;;;;;;;14.46;100.00;98178.09;5025436;28;20010;-64
2023/04/29 04:33:21;;;;;;;;;;;;;;;14.35;100.00;98176.72;5026261;28;19928;-64
2023/04/29 04:35:47;;;;;;;;;;;;;;;14.23;100.00;98184.19;5023694;28;19928;-64
2023/04/29 04:38:12;;;;;;;;;;;;;;;14.15;100.00;98181.66;5009045;28;19983;-64
2023/04/29 04:40:43;;;;;;;;;;;;;;;14.17;100.00;98181.47;5012609;28;20367;-64
2023/04/29 04:43:08;;;;;;;;;;;;;;;14.04;100.00;98174.25;5008446;28;19917;-63
2023/04/29 04:45:33;;;;;;;;;;;;;;;13.95;100.00;98177.94;5022759;28;19968;-64
2023/04/29 04:47:59;;;;;;;;;;;;;;;14.04;100.00;98187.31;5024986;28;20273;-63
2023/04/29 04:50:26;;;;;;;;;;;;;;;13.93;100.00;98185.94;5012906;28;19929;-64
2023/04/29 04:52:53;;;;;;;;;;;;;;;13.90;100.00;98199.34;5025148;28;19928;-64
2023/04/29 04:55:18;;;;;;;;;;;;;;;13.77;100.00;98202.56;5026765;28;19921;-64
2023/04/29 04:57:43;;;;;;;;;;;;;;;13.71;100.00;98205.88;5042552;28;20914;-64
2023/04/29 05:00:09;;;;;;;;;;;;;;;13.82;100.00;98205.47;5041406;28;20012;-64
2023/04/29 05:02:34;;;;;;;;;;;;;;;13.69;100.00;98207.84;5005319;28;20374;-65
2023/04/29 05:05:00;;;;;;;;;;;;;;;13.74;100.00;98215.16;5020275;28;19935;-65
2023/04/29 05:07:25;;;;;;;;;;;;;;;13.76;100.00;98210.56;5044795;28;19971;-62
2023/04/29 05:09:51;;;;;;;;;;;;;;;13.80;100.00;98209.25;5037732;28;19968;-63
2023/04/29 05:12:16;;;;;;;;;;;;;;;13.84;100.00;98208.72;5008888;28;19929;-63
2023/04/29 05:14:44;;;;;;;;;;;;;;;13.87;100.00;98215.38;5006342;28;20012;-63
2023/04/29 05:17:11;;;;;;;;;;;;;;;13.96;100.00;98218.75;5028637;28;19927;-63
2023/04/29 05:19:39;;;;;;;;;;;;;;;13.88;100.00;98222.25;5040945;28;19925;-63
2023/04/29 05:22:05;;;;;;;;;;;;;;;13.60;100.00;98185.38;5024507;28;20390;-63
2023/04/29 05:24:30;;;;;;;;;;;;;;;13.86;100.00;98216.38;5006272;28;19929;-63
2023/04/29 05:26:56;;;;;;;;;;;;;;;13.89;100.00;98215.19;5023651;28;20439;-64
2023/04/29 05:29:21;;;;;;;;;;;;;;;13.81;100.00;98221.31;5019387;28;19925;-63
2023/04/29 05:31:46;;;;;;;;;;;;;;;13.93;100.00;98224.34;5024213;28;19929;-64
2023/04/29 05:34:14;;;;;;;;;;;;;;;13.93;100.00;98227.75;5010258;28;19927;-64
2023/04/29 05:36:39;;;;;;;;;;;;;;;13.93;100.00;98226.94;5024681;28;20433;-64
2023/04/29 05:39:05;;;;;;;;;;;;;;;13.86;100.00;98226.84;5043223;28;19996;-64
2023/04/29 05:41:30;;;;;;;;;;;;;;;13.89;100.00;98225.66;5015905;28;20156;-65
2023/04/29 05:43:55;;;;;;;;;;;;;;;13.88;100.00;98232.69;5010309;28;20437;-64
2023/04/29 05:46:21;;;;;;;;;;;;;;;13.89;100.00;98230.88;5007383;28;19925;-64
2023/04/29 05:48:47;;;;;;;;;;;;;;;13.93;100.00;98232.19;5002082;28;20382;-65
2023/04/29 05:51:16;;;;;;;;;;;;;;;14.01;100.00;98232.09;5020549;28;19925;-64
2023/04/29 05:53:44;;;;;;;;;;;;;;;14.02;100.00;98231.94;5001680;28;20461;-64
2023/04/29 05:56:09;;;;;;;;;;;;;;;14.07;100.00;98235.81;5027772;28;20006;-64
2023/04/29 05:58:36;;;;;;;;;;;;;;;13.95;100.00;98235.44;5020154;28;20607;-64
2023/04/29 06:01:01;;;;;;;;;;;;;;;13.98;100.00;98235.88;5018689;28;19936;-65
2023/04/29 06:03:28;;;;;;;;;;;;;;;14.03;100.00;98241.38;5037771;28;20356;-64
2023/04/29 06:05:53;;;;;;;;;;;;;;;13.92;100.00;98244.41;5024475;28;19929;-62
2023/04/29 06:08:21;;;;;;;;;;;;;;;14.10;100.00;98245.94;5017556;28;20319;-62
2023/04/29 06:10:46;;;;;;;;;;;;;;;14.22;100.00;98252.38;5008392;28;20051;-63
2023/04/29 06:13:12;;;;;;;;;;;;;;;14.34;100.00;98242.28;5039827;28;20007;-63
2023/04/29 06:15:39;;;;;;;;;;;;;;;14.44;100.00;98242.84;5038586;28;19955;-63
2023/04/29 06:18:05;;;;;;;;;;;;;;;14.56;100.00;98241.41;5024414;28;19925;-65
2023/04/29 06:21:09;;;;;;;;;;;;;;;14.57;100.00;98245.69;4998785;28;20362;-66
2023/04/29 06:23:34;;;;;;;;;;;;;;;14.75;100.00;98247.16;5019965;28;20035;-66
2023/04/29 06:26:05;;;;;;;;;;;;;;;14.83;100.00;98243.63;5021872;28;19929;-65
2023/04/29 06:28:53;;;;;;;;;;;;;;;14.85;100.00;98246.88;5022360;28;20545;-65
2023/04/29 06:31:55;;;;;;;;;;;;;;;14.89;100.00;98245.50;5022711;28;19920;-64
2023/04/29 06:34:20;;;;;;;;;;;;;;;14.92;100.00;98250.38;5031087;28;20029;-63
2023/04/29 06:36:50;;;;;;;;;;;;;;;14.94;100.00;98240.53;5026289;28;19928;-65
2023/04/29 06:39:17;;;;;;;;;;;;;;;14.77;100.00;98245.97;5016431;28;19924;-63
2023/04/29 06:41:44;;;;;;;;;;;;;;;14.83;100.00;98249.66;5023526;28;19967;-63
2023/04/29 06:44:10;;;;;;;;;;;;;;;14.87;100.00;98247.50;5009519;28;19920;-63
2023/04/29 06:46:36;;;;;;;;;;;;;;;14.88;100.00;98255.16;5008554;28;19940;-63
2023/04/29 06:49:01;;;;;;;;;;;;;;;14.94;100.00;98258.88;5036557;28;19924;-64
2023/04/29 06:51:27;;;;;;;;;;;;;;;14.88;100.00;98265.63;5022531;28;20374;-63
2023/04/29 06:53:53;;;;;;;;;;;;;;;14.99;100.00;98269.63;5023688;28;19932;-63
2023/04/29 06:56:18;;;;;;;;;;;;;;;15.07;100.00;98261.66;5024567;28;19929;-65
2023/04/29 06:58:44;;;;;;;;;;;;;;;15.01;100.00;98272.06;5007260;28;19932;-63
2023/04/29 07:01:09;;;;;;;;;;;;;;;15.04;100.00;98269.88;5024220;28;19951;-63
2023/04/29 07:03:34;;;;;;;;;;;;;;;15.11;100.00;98262.94;5019996;28;20598;-63
2023/04/29 07:06:00;;;;;;;;;;;;;;;15.22;100.00;98261.63;5020940;28;20727;-63
2023/04/29 07:08:28;;;;;;;;;;;;;;;15.17;100.00;98264.81;5007245;28;19967;-63
2023/04/29 07:20:30;;;;;;;;;;;;;;;15.34;100.00;98259.38;5022231;28;20002;-62
2023/04/29 07:23:07;;;;;;;;;;;;;;;15.44;100.00;98259.91;5019382;28;19924;-63
2023/04/29 07:28:35;;;;;;;;;;;;;;;15.52;100.00;98251.09;5021792;28;20024;-63
2023/04/29 07:31:01;;;;;;;;;;;;;;;15.45;100.00;98252.84;5024227;28;20008;-64
2023/04/29 07:33:27;;;;;;;;;;;;;;;15.48;100.00;98252.44;4986469;28;20444;-63
2023/04/29 07:35:52;;;;;;;;;;;;;;;15.52;100.00;98248.50;4987194;28;20621;-62
2023/04/29 07:38:20;;;;;;;;;;;;;;;15.43;100.00;98258.25;5005038;28;19925;-62
2023/04/29 07:40:45;;;;;;;;;;;;;;;15.40;100.00;98258.63;5006836;28;20044;-62
2023/04/29 07:43:11;;;;;;;;;;;;;;;15.46;100.00;98264.94;5017119;28;20028;-63
2023/04/29 07:45:39;;;;;;;;;;;;;;;15.43;100.00;98260.88;5020920;28;20005;-62
2023/04/29 07:48:04;;;;;;;;;;;;;;;15.42;100.00;98258.44;5019288;28;19968;-62
2023/04/29 07:50:30;;;;;;;;;;;;;;;15.51;100.00;98258.13;5019609;28;20413;-62
2023/04/29 07:52:56;;;;;;;;;;;;;;;15.55;100.00;98269.06;5003550;28;19925;-63
2023/04/29 07:55:22;;;;;;;;;;;;;;;15.51;100.00;98273.84;4999489;28;19929;-63
2023/04/29 07:57:47;;;;;;;;;;;;;;;15.54;100.00;98273.50;4983329;28;20293;-63
2023/04/29 08:00:13;;;;;;;;;;;;;;;15.65;100.00;98281.88;4990955;28;19936;-63
2023/04/29 08:02:38;;;;;;;;;;;;;;;15.61;100.00;98283.25;5020471;28;20770;-62
2023/04/29 08:05:03;;;;;;;;;;;;;;;15.72;100.00;98286.19;5007924;28;19925;-64
2023/04/29 08:07:33;;;;;;;;;;;;;;;15.84;100.00;98283.09;5001544;28;19929;-63
2023/04/29 08:09:59;;;;;;;;;;;;;;;15.72;100.00;98278.34;5012244;28;19983;-63
2023/04/29 08:12:24;;;;;;;;;;;;;;;15.70;100.00;98275.09;5043591;28;20399;-64
2023/04/29 08:14:50;;;;;;;;;;;;;;;15.86;100.00;98275.88;5023983;28;20004;-62
2023/04/29 08:17:15;;;;;;;;;;;;;;;16.16;100.00;98276.56;5003123;28;19925;-63
2023/04/29 08:19:41;;;;;;;;;;;;;;;16.33;100.00;98270.03;5033731;28;19948;-62
2023/04/29 08:22:06;;;;;;;;;;;;;;;16.40;100.00;98270.09;5024776;28;20023;-62
2023/04/29 08:24:32;;;;;;;;;;;;;;;16.51;100.00;98266.94;5022523;28;19976;-64
2023/04/29 08:26:58;;;;;;;;;;;;;;;16.53;100.00;98256.25;5041892;28;20375;-63
2023/04/29 08:29:26;;;;;;;;;;;;;;;16.49;100.00;98252.41;5020800;28;19932;-63
2023/04/29 08:31:52;;;;;;;;;;;;;;;16.86;100.00;98253.06;5027180;28;19983;-63
2023/04/29 08:34:17;;;;;;;;;;;;;;;16.98;100.00;98253.34;5022774;28;20296;-62
2023/04/29 08:36:45;;;;;;;;;;;;;;;16.87;100.00;98249.44;5025925;28;20442;-62
2023/04/29 08:39:11;;;;;;;;;;;;;;;16.79;100.00;98252.16;5026559;28;19974;-62
2023/04/29 08:41:36;;;;;;;;;;;;;;;16.78;100.00;98242.69;5025523;28;19932;-62
2023/04/29 08:44:02;;;;;;;;;;;;;;;16.64;100.00;98242.59;5026006;28;19925;-63
2023/04/29 08:46:27;;;;;;;;;;;;;;;16.55;100.00;98238.50;5023605;28;19932;-63
2023/04/29 08:48:53;;;;;;;;;;;;;;;16.52;100.00;98234.47;5004139;28;19924;-65
2023/04/29 08:51:19;;;;;;;;;;;;;;;16.50;100.00;98235.63;5023780;28;19974;-63
2023/04/29 08:53:44;;;;;;;;;;;;;;;16.52;100.00;98244.16;5008851;28;19924;-63
2023/04/29 08:56:16;;;;;;;;;;;;;;;16.55;100.00;98245.56;5012276;28;20561;-62
2023/04/29 08:58:42;;;;;;;;;;;;;;;16.62;100.00;98233.31;5010189;28;20510;-62
2023/04/29 09:01:08;;;;;;;;;;;;;;;16.70;100.00;98226.09;5006739;28;20011;-63
2023/04/29 09:03:36;;;;;;;;;;;;;;;16.77;100.00;98225.31;5027365;28;19920;-63
2023/04/29 09:06:02;;;;;;;;;;;;;;;16.85;100.00;98223.38;5010271;28;19929;-62
2023/04/29 09:08:27;;;;;;;;;;;;;;;17.16;100.00;98224.72;5027032;28;19927;-62
2023/04/29 09:10:53;;;;;;;;;;;;;;;17.40;100.00;98220.75;5020938;28;19977;-62
2023/04/29 09:13:36;;;;;;;;;;;;;;;17.62;100.00;98220.59;5010451;28;19927;-64
2023/04/29 09:16:02;;;;;;;;;;;;;;;17.68;100.00;98227.69;5038695;28;19928;-62
2023/04/29 09:18:45;;;;;;;;;;;;;;;17.76;99.41;98226.69;5010642;28;20383;-63
2023/04/29 09:21:14;;;;;;;;;;;;;;;17.70;98.79;98224.84;5017007;28;19935;-61
2023/04/29 09:23:39;;;;;;;;;;;;;;;17.67;97.04;98224.25;5024369;28;19959;-63
2023/04/29 09:26:05;;;;;;;;;;;;;;;17.72;96.83;98223.63;5025238;28;19929;-61
2023/04/29 09:28:30;;;;;;;;;;;;;;;17.72;95.32;98217.56;5043335;28;20355;-62
2023/04/29 09:37:06;;;;;;;;;;;;;;;17.66;94.85;98214.72;5033819;28;19924;-62
2023/04/29 09:39:38;;;;;;;;;;;;;;;17.76;95.49;98219.63;5008757;28;19929;-62
2023/04/29 09:42:04;;;;;;;;;;;;;;;17.66;96.94;98224.44;5016564;28;19932;-61
2023/04/29 09:44:31;;;;;;;;;;;;;;;17.71;97.65;98219.41;4997125;28;19925;-62
2023/04/29 09:47:02;;;;;;;;;;;;;;;17.75;98.48;98215.34;5017290;28;19924;-62
2023/04/29 09:49:39;;;;;;;;;;;;;;;17.83;96.83;98204.66;5014364;28;19964;-61
2023/04/29 09:52:05;;;;;;;;;;;;;;;18.05;95.10;98209.72;5005024;28;19933;-62
2023/04/29 09:54:31;;;;;;;;;;;;;;;17.93;96.01;98214.81;5025119;28;19931;-60
2023/04/29 09:56:57;;;;;;;;;;;;;;;18.00;93.93;98212.19;5029882;28;21033;-61
2023/04/29 09:59:23;;;;;;;;;;;;;;;18.14;94.54;98200.63;4992499;28;19924;-62
2023/04/29 10:02:06;;;;;;;;;;;;;;;18.35;91.73;98198.81;4965210;28;20002;-62
2023/04/29 10:04:31;;;;;;;;;;;;;;;18.40;91.47;98181.38;5023345;28;19929;-62
2023/04/29 10:13:15;;;;;;;;;;;;;;;18.48;90.72;98184.81;5015062;28;19998;-62
2023/04/29 10:34:13;;;;;;;;;;;;;;;18.91;89.42;98171.13;4964052;28;20036;-62
2023/04/29 10:36:39;;;;;;;;;;;;;;;18.93;89.69;98162.00;4889443;28;19937;-62
2023/04/29 10:39:05;;;;;;;;;;;;;;;18.98;89.44;98170.09;4938738;28;19932;-62
2023/04/29 10:41:45;;;;;;;;;;;;;;;19.07;88.03;98161.94;4943252;28;19930;-62
2023/04/29 10:44:11;;;;;;;;;;;;;;;19.16;88.37;98150.94;4962841;28;19932;-62
2023/04/29 10:46:37;;;;;;;;;;;;;;;19.17;86.63;98147.28;4938442;28;20445;-63
2023/04/29 10:49:03;;;;;;;;;;;;;;;19.25;86.20;98148.06;4947207;28;19930;-62
2023/04/29 10:51:30;;;;;;;;;;;;;;;19.49;83.32;98138.56;4956182;28;19926;-62
2023/04/29 10:53:59;;;;;;;;;;;;;;;19.72;85.45;98133.53;4964086;28;21089;-62
2023/04/29 10:56:34;;;;;;;;;;;;;;;19.77;83.12;98128.44;5000922;28;19999;-62
2023/04/29 10:59:00;;;;;;;;;;;;;;;19.81;84.00;98122.75;4992124;28;20395;-62
2023/04/29 11:01:39;;;;;;;;;;;;;;;19.83;83.63;98120.72;5011870;28;20031;-62
2023/04/29 11:04:05;;;;;;;;;;;;;;;19.78;83.17;98126.63;5012615;28;20032;-62
2023/04/29 11:06:33;;;;;;;;;;;;;;;19.71;82.87;98124.03;5009219;28;20008;-62
2023/04/29 11:09:13;;;;;;;;;;;;;;;19.68;81.98;98123.66;5029644;28;20646;-62
2023/04/29 11:11:42;;;;;;;;;;;;;;;19.67;81.80;98125.44;5008171;28;19925;-62
2023/04/29 11:14:09;;;;;;;;;;;;;;;19.70;82.10;98126.88;5011832;28;19929;-63
2023/04/29 11:16:36;;;;;;;;;;;;;;;19.77;80.69;98130.28;5011795;28;20621;-62
2023/04/29 11:19:05;;;;;;;;;;;;;;;19.82;80.73;98127.00;5007063;28;19937;-63
2023/04/29 11:21:33;;;;;;;;;;;;;;;19.95;78.69;98119.78;5030196;28;19952;-62
2023/04/29 11:23:58;;;;;;;;;;;;;;;19.93;80.27;98116.56;5009531;28;19935;-62
2023/04/29 11:26:23;;;;;;;;;;;;;;;19.92;80.06;98114.94;5012980;28;19956;-63
2023/04/29 11:28:51;;;;;;;;;;;;;;;19.71;80.01;98070.44;4987849;28;21218;-62
2023/04/29 11:31:16;;;;;;;;;;;;;;;20.13;79.96;98116.38;5008677;28;19929;-62
2023/04/29 11:33:44;;;;;;;;;;;;;;;20.29;79.06;98112.31;4983784;28;20607;-59
2023/04/29 11:36:13;;;;;;;;;;;;;;;20.28;78.69;98104.63;5005482;28;20375;-62
2023/04/29 11:38:39;;;;;;;;;;;;;;;20.29;77.45;98095.69;4990364;28;19925;-63
2023/04/29 11:41:04;;;;;;;;;;;;;;;20.33;77.31;98089.75;4996689;28;20055;-62
2023/04/29 11:43:29;;;;;;;;;;;;;;;20.23;77.06;98092.09;5010786;28;19924;-62
2023/04/29 11:45:55;;;;;;;;;;;;;;;20.27;76.92;98087.19;5019554;28;19932;-62
2023/04/29 11:48:21;;;;;;;;;;;;;;;20.30;77.65;98084.91;5003641;28;20010;-62
2023/04/29 11:50:47;;;;;;;;;;;;;;;20.43;78.14;98081.31;4994749;28;20435;-62
2023/04/29 11:53:14;;;;;;;;;;;;;;;20.48;77.42;98080.63;4988395;28;20042;-63
2023/04/29 11:55:46;;;;;;;;;;;;;;;20.47;75.94;98074.56;5008820;28;19982;-62
2023/04/29 11:58:12;;;;;;;;;;;;;;;20.50;76.42;98076.75;5005044;28;19936;-63
2023/04/29 12:00:37;;;;;;;;;;;;;;;20.60;76.05;98078.06;4993405;28;19998;-62
2023/04/29 12:03:15;;;;;;;;;;;;;;;20.36;76.50;98076.09;4993477;28;19986;-62
2023/04/29 12:05:48;;;;;;;;;;;;;;;20.31;77.08;98075.94;4987209;28;19958;-63
2023/04/29 12:08:13;;;;;;;;;;;;;;;20.34;78.24;98072.06;5005893;28;19924;-61
2023/04/29 13:28:54;;;;;;;;;;;;;;;20.67;74.06;98060.34;5012551;28;19968;-63
2023/04/29 13:31:20;;;;;;;;;;;;;;;20.64;74.55;98051.00;4959914;28;20350;-63
2023/04/29 13:33:47;;;;;;;;;;;;;;;20.54;75.27;98050.72;5018441;28;19932;-62
2023/04/29 13:36:12;;;;;;;;;;;;;;;20.63;73.56;98045.97;5007042;28;19924;-62
2023/04/29 13:38:37;;;;;;;;;;;;;;;20.61;74.11;98046.19;5001018;28;20398;-62
2023/04/29 13:41:03;;;;;;;;;;;;;;;20.60;73.22;98039.25;4980422;28;20735;-63
2023/04/29 13:43:28;;;;;;;;;;;;;;;20.73;72.58;98036.44;5019745;28;19925;-63
2023/04/29 13:45:56;;;;;;;;;;;;;;;20.73;73.46;98052.31;5015199;28;20063;-62
2023/04/29 13:48:24;;;;;;;;;;;;;;;20.68;74.05;98049.56;4988234;28;19931;-63
2023/04/29 13:50:49;;;;;;;;;;;;;;;20.65;73.71;98033.34;5013551;28;19961;-63
2023/04/29 13:53:17;;;;;;;;;;;;;;;20.66;74.00;98048.16;5000334;28;21122;-63
2023/04/29 13:55:45;;;;;;;;;;;;;;;20.68;72.80;98039.00;4976673;28;20443;-64
2023/04/29 13:58:10;;;;;;;;;;;;;;;20.64;73.40;98035.16;5013703;28;19999;-63
2023/04/29 14:00:35;;;;;;;;;;;;;;;20.70;73.01;98022.91;5004566;28;19940;-63
2023/04/29 14:03:07;;;;;;;;;;;;;;;20.71;72.82;98017.38;5015444;28;19929;-63
2023/04/29 14:05:35;;;;;;;;;;;;;;;20.67;73.54;98026.00;5001511;28;20467;-64
2023/04/29 14:08:05;;;;;;;;;;;;;;;20.74;72.63;98029.34;4989212;28;19925;-63
2023/04/29 14:10:30;;;;;;;;;;;;;;;20.73;72.89;98023.25;5002585;28;19932;-63
2023/04/29 14:12:58;;;;;;;;;;;;;;;20.76;73.56;98029.94;4967194;28;19925;-63
2023/04/29 14:15:24;;;;;;;;;;;;;;;20.68;73.89;98024.94;4999076;28;19925;-63
2023/04/29 14:17:49;;;;;;;;;;;;;;;20.77;73.63;98022.81;4998937;28;19968;-64
2023/04/29 14:20:17;;;;;;;;;;;;;;;20.78;73.27;98022.59;4996287;28;20395;-63
2023/04/29 14:22:44;;;;;;;;;;;;;;;20.88;73.47;98022.03;4994947;28;20455;-63
2023/04/29 14:25:11;;;;;;;;;;;;;;;20.92;72.81;98020.56;4999615;28;19924;-64
2023/04/29 14:27:39;;;;;;;;;;;;;;;20.90;73.06;98017.31;5020524;28;20399;-63
2023/04/29 14:30:04;;;;;;;;;;;;;;;20.92;72.98;98017.94;4974645;28;19925;-63
2023/04/29 14:38:42;;;;;;;;;;;;;;;20.87;72.90;98018.59;4675214;28;19940;-63
2023/04/29 14:41:08;;;;;;;;;;;;;;;20.84;73.16;98023.53;4978596;28;20366;-64
2023/04/29 14:43:35;;;;;;;;;;;;;;;20.85;73.92;98020.66;5006852;28;19939;-67
2023/04/29 14:46:01;;;;;;;;;;;;;;;20.85;74.22;98020.66;5027159;28;19916;-64
2023/04/29 14:48:28;;;;;;;;;;;;;;;20.89;71.81;98013.88;5026340;28;19920;-63